AirNav   Everest Fuels
 
 1048 users online  

NH43 Murphy-Sherwood Park Airport
Nottingham, New Hampshire, USA

GOING TO NOTTINGHAM?


FAA INFORMATION EFFECTIVE 10 SEPTEMBER 2020

Location

FAA Identifier: NH43
Lat/Long: 43-10-46.2980N 071-08-13.2270W
43-10.771633N 071-08.220450W
43.1795272,-71.1370075
(estimated)
Elevation: 200 ft. / 61 m (estimated)
Variation: 16W (1995)
From city: 2 miles W of NOTTINGHAM, NH
Time zone: UTC -4 (UTC -5 during Standard Time)
Zip code: 03290

Airport Operations

Airport use: Private use. Permission required prior to landing
Activation date: 03/2000
Control tower: no
ARTCC: BOSTON CENTER
FSS: BANGOR FLIGHT SERVICE STATION
Attendance: UNATNDD
Segmented circle: no

Airport Communications

WX ASOS at DAW (11 nm NE): 135.275 (603-332-7814)
WX ASOS at CON (16 nm W): 132.325 (603-224-6558)
WX ASOS at MHT (20 nm SW): 119.55 (603-621-1766)

Nearby radio navigation aids

VOR radial/distance  VOR name  Freq  Var
PSMr309/14.5PEASE VOR/DME116.5016W
CONr112/19.3CONCORD VOR/DME112.9015W
MHTr044/21.3MANCHESTER VOR/DME114.4015W
LWMr011/26.4LAWRENCE VOR/DME112.5015W
ENEr254/27.2KENNEBUNK VOR/DME117.1017W

 
NDB name  Hdg/Dist  Freq  Var  ID
ROLLINS276/13.726016WESG . ... --.
EPSOM091/14.321616WCO -.-. ---

Airport Services

Runway Information

Runway 12/30

Dimensions: 1750 x 75 ft. / 533 x 23 m
Surface: turf
RUNWAY 12  RUNWAY 30
Traffic pattern: leftleft

Airport Ownership and Management from official FAA records

Ownership: Privately-owned
Owner: REED MURPHY & RZM REALTY TRUST
393 STAGE RD
W. NOTTINGHAM, NH 03291
Phone 603-942-5843
Manager: REED MURPHY
393 STAGE RD
W. NOTTINGHAM, NH 03291
Phone 603-942-5843

Additional Remarks

FOR CD CTC BOSTON APCH AT 603-594-5551.

Instrument Procedures

There are no published instrument procedures at NH43.

Some nearby airports with instrument procedures:

KDAW - Skyhaven Airport (11 nm NE)
KPSM - Portsmouth International Airport at Pease (15 nm SE)
KCON - Concord Municipal Airport (16 nm W)
3B4 - Littlebrook Air Park (16 nm E)
KMHT - Manchester Airport (20 nm SW)
 
Loc | Ops | Rwys | IFR | FBO | Links
Com | Nav | Svcs | Stats | Notes
Area around NH43 (Murphy-Sherwood Park Airport)
 
Road maps at: MapQuest Bing Google
 
Aerial photo
No photo
 
Sectional chart

 
Airport distance calculator
Flying to Murphy-Sherwood Park Airport? Find the distance to fly.

From to NH43

Sunrise and sunset
Times for 18-Sep-2020
 Local
(UTC-4)
 Zulu
(UTC)
Morning civil twilight06:0110:01
Sunrise06:2910:29
Sunset18:4722:47
Evening civil twilight19:1623:16

Current date and time
Zulu (UTC)  19-Sep-2020 01:40:26
Local (UTC-4)  18-Sep-2020 21:40:26
 
METAR
KDAW 
11nm NE 
190051Z AUTO 33008KT 10SM CLR 11/00 A3007 RMK AO2 SLP181 T01110000
KPSM 
16nm SE 
190056Z 35007KT 10SM FEW070 14/M01 A3005 RMK AO2A SLP179 T01411015
KCON 
16nm W 
190051Z AUTO 32011G17KT 10SM OVC070 12/M01 A3011 RMK AO2 SLP196 T01171011
KMHT 
20nm SW 
190053Z 33020G27KT 10SM SCT065 14/M01 A3008 RMK AO2 PK WND 33027/0033 SLP199 T01391011
KSFM 
22nm NE 
190056Z AUTO 34010KT 10SM CLR 13/01 A3008 RMK AO2 SLP189 T01280011
TAF
KPSM 
16nm SE 
181720Z 1818/1918 35012KT P6SM BKN050 FM190000 34010KT P6SM SKC
KCON 
16nm W 
181720Z 1818/1918 03009KT P6SM BKN045 FM182300 34004KT P6SM SKC FM191500 34010KT P6SM SKC
KMHT 
20nm SW 
181720Z 1818/1918 36010G17KT P6SM BKN045 FM190000 35008KT P6SM SKC
NOTAMs
Click for the latest NOTAMs
NOTAMs are issued by the DoD/FAA and will open in a separate window not controlled by AirNav.

 

 
 

Would you like to see your business listed on this page?

 If your business provides an interesting product or service to pilots, flight crews, aircraft, or users of the Murphy-Sherwood Park Airport, you should consider listing it here.  To start the listing process, click on the button below
 
Add a business
 

Other Pages about Murphy-Sherwood Park Airport

Update a link
 
Copyright © AirNav, LLC. All rights reserved. Privacy Policy  Contact